createdAt,value
2023-03-29T00:01:44.187Z,13.33
2023-03-29T00:06:47.782Z,12.80
2023-03-29T00:11:49.142Z,14.23
2023-03-29T00:16:51.057Z,15.43
2023-03-29T00:21:52.619Z,14.77
2023-03-29T00:26:54.040Z,16.00
2023-03-29T00:31:56.070Z,16.70
2023-03-29T00:36:58.150Z,17.73
2023-03-29T00:41:59.608Z,17.67
2023-03-29T00:47:00.968Z,16.97
2023-03-29T00:52:02.460Z,18.47
2023-03-29T00:57:04.783Z,18.47
2023-03-29T01:02:07.071Z,17.23
2023-03-29T01:07:12.958Z,17.70
2023-03-29T01:12:20.836Z,17.70
2023-03-29T01:17:22.259Z,15.47
2023-03-29T01:22:30.846Z,16.90
2023-03-29T01:27:47.231Z,15.97
2023-03-29T01:32:59.108Z,17.93
2023-03-29T01:38:13.412Z,17.93
2023-03-29T01:43:21.379Z,18.42
2023-03-29T01:48:29.048Z,17.73
2023-03-29T01:53:35.255Z,17.20
2023-03-29T01:58:38.892Z,18.03
2023-03-29T02:03:42.503Z,17.73
2023-03-29T02:08:45.207Z,17.23
2023-03-29T02:13:46.577Z,19.60
2023-03-29T02:18:49.018Z,18.33
2023-03-29T02:23:54.571Z,18.80
2023-03-29T02:28:56.168Z,19.57
2023-03-29T02:34:00.419Z,20.47
2023-03-29T02:39:04.337Z,20.63
2023-03-29T02:44:08.179Z,19.27
2023-03-29T02:49:10.214Z,21.30
2023-03-29T02:54:17.803Z,21.70
2023-03-29T02:59:25.815Z,20.57
2023-03-29T03:04:27.977Z,20.97
2023-03-29T03:09:29.383Z,21.03
2023-03-29T03:14:30.782Z,20.23
2023-03-29T03:19:32.204Z,20.80
2023-03-29T03:24:33.767Z,19.33
2023-03-29T03:29:36.503Z,20.93
2023-03-29T03:34:38.631Z,20.33
2023-03-29T03:39:40.083Z,20.70
2023-03-29T03:44:41.869Z,20.40
2023-03-29T03:49:43.512Z,19.90
2023-03-29T03:54:46.642Z,22.03
2023-03-29T03:59:48.963Z,22.60
2023-03-29T04:04:50.382Z,19.13
2023-03-29T04:09:52.988Z,20.10
2023-03-29T04:14:54.351Z,18.97
2023-03-29T04:19:56.398Z,18.57
2023-03-29T04:24:57.777Z,21.47
2023-03-29T04:29:59.195Z,18.77
2023-03-29T04:35:00.572Z,20.97
2023-03-29T04:40:02.479Z,18.83
2023-03-29T04:45:04.006Z,19.00
2023-03-29T04:50:06.400Z,17.40
2023-03-29T04:55:08.515Z,17.50
2023-03-29T05:00:14.904Z,15.33
2023-03-29T05:05:17.395Z,15.00
2023-03-29T05:10:18.960Z,15.27
2023-03-29T05:15:21.305Z,13.53
2023-03-29T05:20:22.825Z,12.00
2023-03-29T05:25:25.716Z,10.67
2023-03-29T05:30:27.073Z,10.33
2023-03-29T05:35:29.247Z,11.00
2023-03-29T05:40:31.464Z,9.57
2023-03-29T05:45:33.904Z,10.13
2023-03-29T05:50:37.168Z,9.70
2023-03-29T05:55:38.576Z,9.23
2023-03-29T06:00:40.468Z,8.20
2023-03-29T06:05:41.824Z,9.07
2023-03-29T06:10:43.737Z,9.60
2023-03-29T06:15:45.308Z,7.77
2023-03-29T06:20:52.985Z,7.80
2023-03-29T06:25:55.599Z,8.40
2023-03-29T06:31:02.298Z,8.17
2023-03-29T06:36:04.841Z,7.23
2023-03-29T06:41:06.921Z,8.10
2023-03-29T06:46:12.325Z,7.30
2023-03-29T06:51:13.878Z,8.47
2023-03-29T06:56:16.096Z,8.40
2023-03-29T07:01:17.466Z,7.80
2023-03-29T07:06:20.781Z,7.40
2023-03-29T07:11:22.168Z,7.50
2023-03-29T07:16:23.643Z,7.97
2023-03-29T07:21:25.101Z,7.67
2023-03-29T07:26:28.278Z,8.47
2023-03-29T07:31:30.655Z,8.05
2023-03-29T07:36:34.346Z,9.20
2023-03-29T07:41:36.077Z,10.10
2023-03-29T07:46:37.944Z,9.83
2023-03-29T07:51:39.381Z,10.87
2023-03-29T07:56:41.597Z,11.07
2023-03-29T08:01:43.045Z,11.63
2023-03-29T08:06:44.399Z,13.33
2023-03-29T08:11:45.811Z,12.10
2023-03-29T08:16:47.454Z,13.90
2023-03-29T08:21:48.871Z,12.87
2023-03-29T08:26:50.310Z,14.83
2023-03-29T08:31:51.779Z,14.60
2023-03-29T08:36:55.560Z,15.83
2023-03-29T08:42:16.210Z,15.37
2023-03-29T08:47:33.242Z,14.63
2023-03-29T08:52:55.427Z,15.53
2023-03-29T08:57:57.340Z,15.60
2023-03-29T09:03:02.326Z,16.73
2023-03-29T09:08:04.007Z,16.10
2023-03-29T09:13:08.459Z,15.03
2023-03-29T09:18:16.069Z,15.27
2023-03-29T09:23:18.049Z,15.23
2023-03-29T09:28:22.181Z,16.17
2023-03-29T09:33:28.170Z,14.60
2023-03-29T09:38:31.221Z,14.97
2023-03-29T09:43:37.528Z,15.20
2023-03-29T09:48:41.055Z,14.77
2023-03-29T09:53:42.483Z,14.13
2023-03-29T09:58:44.135Z,16.10
2023-03-29T10:03:48.264Z,15.37
2023-03-29T10:08:50.026Z,22.55
2023-03-29T10:13:54.956Z,15.40
2023-03-29T10:18:56.528Z,14.53
2023-03-29T10:23:59.288Z,15.07
2023-03-29T10:29:02.993Z,15.87
2023-03-29T10:34:05.374Z,15.17
2023-03-29T10:39:06.840Z,16.47
2023-03-29T10:44:23.941Z,15.83
2023-03-29T10:49:25.600Z,17.23
2023-03-29T10:54:27.085Z,16.63
2023-03-29T10:59:29.795Z,19.20
2023-03-29T11:04:39.921Z,18.00
2023-03-29T11:09:46.395Z,16.87
2023-03-29T11:14:52.828Z,15.30
2023-03-29T11:19:58.642Z,16.13
2023-03-29T11:25:00.024Z,17.43
2023-03-29T11:30:13.991Z,15.80
2023-03-29T11:35:24.793Z,15.07
2023-03-29T11:40:26.127Z,15.27
2023-03-29T11:45:30.685Z,14.53
2023-03-29T11:55:37.903Z,18.30
2023-03-29T12:00:45.306Z,15.93
2023-03-29T12:05:49.325Z,15.00
2023-03-29T12:10:56.723Z,14.82
2023-03-29T12:16:07.163Z,15.63
2023-03-29T12:21:21.837Z,15.95
2023-03-29T12:26:41.712Z,15.70
2023-03-29T12:31:53.110Z,17.38
2023-03-29T12:37:01.982Z,16.40
2023-03-29T12:42:20.323Z,17.00
2023-03-29T12:47:23.593Z,16.23
2023-03-29T12:52:31.353Z,15.30
2023-03-29T12:57:56.726Z,15.95
2023-03-29T13:03:02.736Z,17.35
2023-03-29T13:08:12.145Z,15.02
2023-03-29T13:13:18.243Z,17.23
2023-03-29T13:18:19.625Z,17.05
2023-03-29T13:23:27.169Z,17.33
2023-03-29T13:28:47.398Z,19.25
2023-03-29T13:33:57.182Z,17.00
2023-03-29T13:39:01.431Z,17.33
2023-03-29T13:44:02.854Z,17.45
2023-03-29T13:49:24.454Z,17.45
2023-03-29T13:54:32.630Z,16.98
2023-03-29T13:59:43.909Z,18.27
2023-03-29T14:04:46.964Z,16.55
2023-03-29T14:09:50.212Z,16.48
2023-03-29T14:14:58.786Z,17.33
2023-03-29T14:20:00.697Z,19.48
2023-03-29T14:25:06.458Z,21.50
2023-03-29T14:30:23.832Z,18.88
2023-03-29T14:35:32.176Z,18.60
2023-03-29T14:40:34.803Z,21.15
2023-03-29T14:45:37.102Z,19.05
2023-03-29T14:50:38.899Z,19.95
2023-03-29T14:55:48.667Z,17.77
2023-03-29T15:00:51.698Z,20.77
2023-03-29T15:06:02.413Z,24.98
2023-03-29T15:11:11.799Z,21.50
2023-03-29T15:16:15.223Z,21.17
2023-03-29T15:21:18.153Z,22.67
2023-03-29T15:26:26.154Z,23.17
2023-03-29T15:31:33.230Z,22.25
2023-03-29T15:36:34.787Z,22.08
2023-03-29T15:41:36.415Z,26.58
2023-03-29T15:46:37.983Z,24.15
2023-03-29T15:51:39.912Z,27.38
2023-03-29T15:56:48.058Z,29.38
2023-03-29T16:01:50.005Z,32.00
2023-03-29T16:06:53.085Z,30.02
2023-03-29T16:11:54.718Z,29.48
2023-03-29T16:16:58.814Z,30.60
2023-03-29T16:22:01.106Z,29.00
2023-03-29T16:27:02.785Z,31.40
2023-03-29T16:32:06.785Z,30.00
2023-03-29T16:37:08.604Z,28.92
2023-03-29T16:42:11.245Z,31.13
2023-03-29T16:47:12.620Z,31.27
2023-03-29T16:52:14.028Z,28.77
2023-03-29T16:57:15.424Z,34.05
2023-03-29T17:02:16.826Z,33.38
2023-03-29T17:07:18.191Z,35.65
2023-03-29T17:12:21.163Z,34.38
2023-03-29T17:17:22.845Z,35.33
2023-03-29T17:22:24.879Z,32.55
2023-03-29T17:27:26.511Z,34.15
2023-03-29T17:32:27.981Z,29.52
2023-03-29T17:37:29.687Z,31.85
2023-03-29T17:42:31.186Z,30.13
2023-03-29T17:47:32.547Z,31.65
2023-03-29T17:52:33.971Z,31.50
2023-03-29T17:57:35.378Z,31.83
2023-03-29T18:02:37.046Z,34.88
2023-03-29T18:07:38.853Z,35.63
2023-03-29T18:12:40.258Z,34.83
2023-03-29T18:17:41.720Z,33.83
2023-03-29T18:22:43.861Z,36.65
2023-03-29T18:27:45.378Z,36.30
2023-03-29T18:32:46.938Z,33.83
2023-03-29T18:37:48.330Z,35.72
2023-03-29T18:42:50.279Z,36.10
2023-03-29T18:47:52.318Z,36.42
2023-03-29T18:52:54.076Z,39.15
2023-03-29T18:57:55.704Z,38.13
2023-03-29T19:02:57.218Z,38.72
2023-03-29T19:07:59.094Z,35.95
2023-03-29T19:13:00.722Z,37.03
2023-03-29T19:18:02.546Z,37.28
2023-03-29T19:23:04.472Z,37.58
2023-03-29T19:28:06.087Z,36.05
2023-03-29T19:33:07.572Z,34.72
2023-03-29T19:38:09.293Z,34.50
2023-03-29T19:43:16.297Z,35.28
2023-03-29T19:53:23.225Z,34.83
2023-03-29T19:58:25.362Z,36.25
2023-03-29T20:03:29.768Z,32.47
2023-03-29T20:13:38.715Z,32.63
2023-03-29T20:18:40.516Z,33.78
2023-03-29T20:23:42.021Z,32.47
2023-03-29T20:28:43.433Z,30.33
2023-03-29T20:33:44.824Z,30.67
2023-03-29T20:38:46.262Z,29.10
2023-03-29T20:43:48.485Z,31.50
2023-03-29T20:48:56.046Z,31.35
2023-03-29T20:54:04.762Z,31.50
2023-03-29T20:59:07.189Z,28.70
2023-03-29T21:04:09.164Z,28.05
2023-03-29T21:09:10.562Z,30.23
2023-03-29T21:14:11.940Z,31.05
2023-03-29T21:19:14.701Z,34.40
2023-03-29T21:24:16.123Z,32.83
2023-03-29T21:29:17.522Z,33.05
2023-03-29T21:34:18.907Z,33.47
2023-03-29T21:39:20.269Z,34.67
2023-03-29T21:44:21.702Z,35.90
2023-03-29T21:49:23.138Z,35.25
2023-03-29T21:54:24.614Z,34.65
2023-03-29T21:59:26.032Z,35.38
2023-03-29T22:04:36.476Z,36.35
2023-03-29T22:09:41.341Z,34.83
2023-03-29T22:14:42.717Z,35.13
2023-03-29T22:19:44.103Z,34.75
2023-03-29T22:24:45.762Z,34.70
2023-03-29T22:29:47.184Z,34.92
2023-03-29T22:34:48.550Z,35.63
2023-03-29T22:39:50.118Z,36.80
2023-03-29T22:44:51.612Z,35.78
2023-03-29T22:49:53.029Z,37.78
2023-03-29T22:54:54.489Z,36.95
2023-03-29T22:59:55.902Z,35.40
2023-03-29T23:04:57.375Z,36.05
2023-03-29T23:09:58.859Z,36.60
2023-03-29T23:15:00.261Z,36.60
2023-03-29T23:20:02.045Z,38.30
2023-03-29T23:25:03.719Z,35.72
2023-03-29T23:30:07.530Z,37.42
2023-03-29T23:35:09.121Z,39.60
2023-03-29T23:40:16.761Z,37.85
2023-03-29T23:45:18.603Z,37.85
2023-03-29T23:50:20.085Z,39.33
2023-03-29T23:55:21.505Z,40.50
